createdAt,value
2023-05-17T00:02:24.704Z,60.49
2023-05-17T00:05:04.930Z,59.40
2023-05-17T00:07:34.541Z,59.17
2023-05-17T00:10:02.919Z,59.89
2023-05-17T00:12:32.865Z,60.27
2023-05-17T00:15:03.464Z,59.91
2023-05-17T00:17:31.591Z,60.46
2023-05-17T00:20:00.089Z,59.55
2023-05-17T00:22:28.603Z,59.46
2023-05-17T00:24:57.948Z,59.88
2023-05-17T00:27:26.372Z,59.69
2023-05-17T00:29:59.194Z,60.18
2023-05-17T00:32:29.838Z,60.94
2023-05-17T00:35:00.658Z,63.54
2023-05-17T00:37:28.799Z,61.46
2023-05-17T00:39:56.928Z,61.04
2023-05-17T00:42:33.732Z,63.16
2023-05-17T00:45:08.928Z,61.95
2023-05-17T00:47:38.981Z,61.24
2023-05-17T00:50:08.098Z,61.24
2023-05-17T00:52:38.133Z,62.17
2023-05-17T00:55:07.344Z,61.45
2023-05-17T00:57:43.935Z,60.40
2023-05-17T01:00:17.845Z,60.71
2023-05-17T01:02:55.003Z,60.45
2023-05-17T01:05:28.782Z,60.45
2023-05-17T01:07:57.190Z,60.74
2023-05-17T01:10:29.230Z,60.70
2023-05-17T01:13:13.523Z,60.84
2023-05-17T01:15:51.223Z,61.77
2023-05-17T01:18:23.949Z,60.43
2023-05-17T01:20:52.699Z,61.55
2023-05-17T01:23:33.830Z,61.14
2023-05-17T01:26:09.186Z,61.31
2023-05-17T01:28:42.441Z,61.97
2023-05-17T01:31:14.493Z,61.28
2023-05-17T01:33:42.936Z,61.02
2023-05-17T01:36:16.392Z,62.34
2023-05-17T01:38:47.127Z,62.02
2023-05-17T01:41:18.830Z,62.91
2023-05-17T01:43:52.427Z,64.57
2023-05-17T01:46:25.181Z,63.52
2023-05-17T01:48:58.552Z,64.37
2023-05-17T01:51:36.547Z,65.01
2023-05-17T01:54:09.548Z,65.28
2023-05-17T01:56:40.075Z,66.82
2023-05-17T01:59:11.304Z,67.13
2023-05-17T02:01:40.112Z,66.13
2023-05-17T02:04:08.641Z,66.51
2023-05-17T02:06:41.945Z,65.26
2023-05-17T02:09:11.658Z,65.00
2023-05-17T02:11:39.818Z,64.03
2023-05-17T02:14:13.965Z,65.76
2023-05-17T02:16:52.116Z,65.82
2023-05-17T02:19:22.521Z,64.56
2023-05-17T02:21:57.480Z,63.54
2023-05-17T02:24:26.768Z,62.65
2023-05-17T02:26:56.867Z,62.67
2023-05-17T02:29:26.465Z,62.42
2023-05-17T02:31:54.862Z,63.05
2023-05-17T02:34:28.327Z,63.07
2023-05-17T02:37:00.180Z,62.78
2023-05-17T02:39:28.052Z,62.45
2023-05-17T02:41:58.818Z,63.33
2023-05-17T02:44:30.163Z,63.24
2023-05-17T02:47:01.718Z,63.01
2023-05-17T02:49:34.652Z,64.12
2023-05-17T02:52:07.594Z,64.25
2023-05-17T02:54:39.472Z,64.30
2023-05-17T02:57:09.664Z,64.12
2023-05-17T02:59:41.427Z,64.24
2023-05-17T03:02:09.666Z,64.60
2023-05-17T03:04:39.501Z,65.67
2023-05-17T03:07:08.499Z,64.84
2023-05-17T03:09:36.334Z,64.55
2023-05-17T03:12:07.862Z,65.64
2023-05-17T03:14:36.262Z,64.66
2023-05-17T03:17:06.277Z,65.62
2023-05-17T03:19:34.605Z,63.81
2023-05-17T03:22:05.151Z,64.28
2023-05-17T03:24:33.915Z,65.21
2023-05-17T03:27:02.276Z,66.39
2023-05-17T03:29:30.685Z,65.74
2023-05-17T03:32:19.216Z,64.69
2023-05-17T03:34:49.514Z,62.96
2023-05-17T03:37:20.195Z,63.44
2023-05-17T03:39:50.520Z,63.63
2023-05-17T03:42:20.887Z,63.23
2023-05-17T03:44:48.890Z,64.42
2023-05-17T03:47:19.665Z,64.01
2023-05-17T03:49:56.740Z,63.71
2023-05-17T03:52:26.828Z,64.71
2023-05-17T03:54:57.059Z,64.59
2023-05-17T03:57:26.829Z,64.00
2023-05-17T03:59:55.187Z,63.45
2023-05-17T04:02:26.123Z,64.46
2023-05-17T04:05:00.873Z,65.17
2023-05-17T04:07:32.258Z,64.62
2023-05-17T04:10:03.797Z,63.19
2023-05-17T04:12:31.937Z,65.00
2023-05-17T04:15:00.172Z,63.55
2023-05-17T04:17:41.674Z,65.01
2023-05-17T04:20:11.169Z,63.72
2023-05-17T04:22:40.548Z,63.56
2023-05-17T04:25:13.730Z,64.55
2023-05-17T04:27:46.662Z,63.72
2023-05-17T04:30:15.118Z,63.88
2023-05-17T04:32:47.044Z,64.25
2023-05-17T04:35:19.269Z,63.74
2023-05-17T04:38:05.932Z,61.99
2023-05-17T04:40:37.459Z,63.59
2023-05-17T04:43:07.235Z,63.84
2023-05-17T04:45:35.853Z,65.99
2023-05-17T04:48:06.496Z,64.37
2023-05-17T04:50:36.165Z,64.82
2023-05-17T04:53:10.736Z,64.01
2023-05-17T04:55:38.688Z,62.35
2023-05-17T04:58:18.614Z,64.23
2023-05-17T05:00:48.190Z,64.15
2023-05-17T05:03:20.727Z,64.93
2023-05-17T05:05:55.602Z,64.91
2023-05-17T05:08:25.911Z,64.53
2023-05-17T05:11:00.480Z,63.84
2023-05-17T05:13:29.359Z,63.85
2023-05-17T05:16:01.555Z,63.54
2023-05-17T05:18:30.858Z,63.05
2023-05-17T05:21:00.808Z,62.70
2023-05-17T05:23:28.825Z,63.54
2023-05-17T05:25:59.001Z,61.40
2023-05-17T05:28:31.700Z,60.99
2023-05-17T05:31:02.457Z,62.59
2023-05-17T05:33:32.943Z,63.56
2023-05-17T05:36:02.802Z,63.51
2023-05-17T05:38:35.163Z,62.76
2023-05-17T05:41:04.044Z,63.62
2023-05-17T05:43:33.702Z,63.43
2023-05-17T05:46:01.516Z,63.84
2023-05-17T05:48:32.305Z,63.85
2023-05-17T05:51:03.987Z,64.87
2023-05-17T05:53:38.845Z,65.00
2023-05-17T05:56:10.009Z,65.19
2023-05-17T05:58:40.890Z,64.56
2023-05-17T06:01:15.397Z,64.04
2023-05-17T06:03:47.384Z,64.03
2023-05-17T06:06:19.889Z,63.83
2023-05-17T06:08:49.827Z,65.95
2023-05-17T06:11:24.474Z,65.03
2023-05-17T06:13:55.834Z,65.11
2023-05-17T06:16:23.880Z,66.69
2023-05-17T06:18:55.890Z,67.27
2023-05-17T06:21:28.326Z,66.62
2023-05-17T06:23:57.842Z,68.24
2023-05-17T06:26:29.345Z,67.24
2023-05-17T06:28:57.820Z,67.26
2023-05-17T06:31:29.729Z,67.59
2023-05-17T06:33:58.327Z,67.23
2023-05-17T06:36:32.403Z,66.95
2023-05-17T06:39:01.266Z,65.98
2023-05-17T06:41:30.756Z,65.83
2023-05-17T06:43:58.742Z,65.77
2023-05-17T06:46:28.537Z,66.16
2023-05-17T06:48:56.809Z,66.89
2023-05-17T06:51:26.715Z,67.56
2023-05-17T06:53:56.917Z,68.09
2023-05-17T06:56:25.004Z,68.07
2023-05-17T06:59:00.993Z,68.12
2023-05-17T07:01:30.344Z,67.39
2023-05-17T07:03:58.732Z,66.43
2023-05-17T07:06:27.992Z,67.86
2023-05-17T07:09:04.210Z,69.04
2023-05-17T07:11:34.827Z,68.62
2023-05-17T07:14:03.509Z,68.78
2023-05-17T07:16:31.806Z,68.23
2023-05-17T07:19:05.566Z,69.39
2023-05-17T07:21:36.898Z,68.54
2023-05-17T07:24:10.014Z,66.68
2023-05-17T07:26:38.780Z,67.52
2023-05-17T07:29:07.147Z,67.31
2023-05-17T07:31:39.564Z,67.65
2023-05-17T07:34:07.902Z,66.27
2023-05-17T07:36:36.222Z,66.71
2023-05-17T07:39:05.356Z,65.19
2023-05-17T07:41:35.248Z,66.22
2023-05-17T07:44:07.457Z,67.06
2023-05-17T07:46:36.962Z,67.12
2023-05-17T07:49:06.166Z,66.64
2023-05-17T07:51:34.619Z,66.49
2023-05-17T07:54:03.792Z,66.35
2023-05-17T07:56:33.870Z,67.44
2023-05-17T07:59:04.686Z,67.03
2023-05-17T08:01:33.351Z,67.79
2023-05-17T08:04:01.794Z,67.16
2023-05-17T08:06:33.943Z,68.61
2023-05-17T08:09:02.999Z,67.95
2023-05-17T08:11:48.283Z,67.32
2023-05-17T08:14:23.300Z,67.61
2023-05-17T08:16:57.181Z,67.20
2023-05-17T08:19:27.267Z,65.83
2023-05-17T08:21:58.886Z,66.49
2023-05-17T08:24:29.347Z,66.69
2023-05-17T08:26:58.958Z,67.16
2023-05-17T08:29:29.982Z,67.17
2023-05-17T08:31:58.219Z,66.38
2023-05-17T08:34:28.450Z,67.08
2023-05-17T08:36:57.173Z,64.96
2023-05-17T08:39:26.147Z,63.88
2023-05-17T08:41:59.675Z,63.17
2023-05-17T08:44:31.175Z,63.94
2023-05-17T08:47:03.680Z,65.39
2023-05-17T08:49:33.626Z,65.31
2023-05-17T08:52:07.163Z,64.45
2023-05-17T08:54:40.738Z,65.18
2023-05-17T08:57:11.936Z,64.90
2023-05-17T08:59:42.261Z,63.09
2023-05-17T09:02:13.259Z,63.70
2023-05-17T09:04:41.969Z,63.25
2023-05-17T09:07:15.289Z,61.11
2023-05-17T09:09:45.911Z,60.86
2023-05-17T09:12:20.351Z,59.86
2023-05-17T09:14:50.415Z,60.06
2023-05-17T09:17:23.776Z,62.51
2023-05-17T09:19:52.193Z,62.57
2023-05-17T09:22:26.329Z,60.55
2023-05-17T09:24:54.763Z,61.46
2023-05-17T09:27:23.127Z,62.11
2023-05-17T09:29:52.966Z,63.03
2023-05-17T09:32:22.547Z,62.83
2023-05-17T09:34:51.160Z,60.44
2023-05-17T09:37:20.981Z,59.49
2023-05-17T09:39:49.160Z,59.58
2023-05-17T09:42:20.054Z,59.81
2023-05-17T09:45:02.172Z,60.47
2023-05-17T09:47:31.458Z,58.89
2023-05-17T09:50:05.182Z,59.47
2023-05-17T09:52:37.573Z,57.78
2023-05-17T09:55:10.354Z,56.10
2023-05-17T09:57:39.815Z,56.31
2023-05-17T10:00:14.066Z,55.68
2023-05-17T10:02:45.150Z,55.17
2023-05-17T10:05:14.804Z,54.21
2023-05-17T10:07:46.742Z,55.91
2023-05-17T10:10:18.472Z,56.31
2023-05-17T10:12:47.991Z,55.70
2023-05-17T10:15:20.802Z,55.14
2023-05-17T10:17:48.992Z,56.46
2023-05-17T10:20:18.657Z,57.16
2023-05-17T10:22:49.235Z,56.51
2023-05-17T10:25:17.987Z,57.31
2023-05-17T10:27:47.325Z,53.97
2023-05-17T10:30:16.194Z,54.00
2023-05-17T10:32:49.797Z,54.58
2023-05-17T10:35:18.512Z,55.19
2023-05-17T10:37:56.443Z,55.09
2023-05-17T10:40:24.970Z,54.73
2023-05-17T10:42:55.485Z,56.52
2023-05-17T10:45:26.094Z,56.52
2023-05-17T10:47:58.873Z,58.36
2023-05-17T10:50:29.675Z,58.44
2023-05-17T10:53:02.373Z,57.78
2023-05-17T10:55:39.355Z,58.97
2023-05-17T10:58:19.345Z,58.54
2023-05-17T11:00:49.387Z,56.36
2023-05-17T11:03:21.097Z,58.53
2023-05-17T11:06:23.567Z,58.96
2023-05-17T11:09:17.078Z,61.31
2023-05-17T11:12:08.444Z,61.76
2023-05-17T11:14:56.748Z,61.43
2023-05-17T11:17:26.948Z,61.50
2023-05-17T11:20:16.887Z,59.43
2023-05-17T11:22:59.139Z,58.77
2023-05-17T11:25:30.395Z,58.65
2023-05-17T11:28:00.355Z,59.78
2023-05-17T11:30:31.787Z,57.27
2023-05-17T11:33:02.291Z,56.45
2023-05-17T11:35:36.133Z,57.62
2023-05-17T11:38:20.322Z,57.47
2023-05-17T11:40:51.496Z,57.14
2023-05-17T11:43:30.978Z,58.00
2023-05-17T11:46:02.628Z,57.63
2023-05-17T11:48:31.879Z,58.31
2023-05-17T11:51:02.689Z,57.68
2023-05-17T11:53:32.589Z,58.18
2023-05-17T11:56:04.871Z,58.06
2023-05-17T11:58:33.306Z,58.67
2023-05-17T12:01:04.352Z,57.91
2023-05-17T12:03:33.545Z,58.05
2023-05-17T12:06:07.238Z,57.91
2023-05-17T12:08:36.540Z,56.19
2023-05-17T12:11:06.337Z,56.16
2023-05-17T12:13:35.846Z,56.20
2023-05-17T12:16:07.599Z,56.91
2023-05-17T12:18:47.147Z,56.04
2023-05-17T12:21:21.425Z,56.34
2023-05-17T12:23:52.714Z,57.56
2023-05-17T12:26:21.683Z,56.87
2023-05-17T12:28:55.253Z,55.95
2023-05-17T12:31:26.944Z,57.93
2023-05-17T12:33:55.468Z,57.25
2023-05-17T12:36:34.990Z,57.92
2023-05-17T12:39:09.000Z,56.81
2023-05-17T12:41:38.644Z,56.58
2023-05-17T12:46:41.835Z,56.60
2023-05-17T12:49:11.597Z,56.43
2023-05-17T12:51:46.420Z,57.51
2023-05-17T12:54:16.538Z,56.24
2023-05-17T12:56:45.261Z,56.12
2023-05-17T12:59:16.772Z,54.44
2023-05-17T13:01:45.664Z,56.11
2023-05-17T13:04:17.671Z,55.13
2023-05-17T13:06:48.634Z,54.69
2023-05-17T13:09:18.754Z,55.83
2023-05-17T13:11:55.413Z,53.49
2023-05-17T13:14:45.378Z,54.64
2023-05-17T13:17:27.050Z,55.02
2023-05-17T13:19:57.442Z,56.83
2023-05-17T13:22:30.380Z,55.88
2023-05-17T13:25:05.055Z,54.41
2023-05-17T13:27:33.196Z,54.64
2023-05-17T13:30:01.224Z,55.28
2023-05-17T13:32:31.938Z,55.12
2023-05-17T13:35:02.105Z,58.16
2023-05-17T13:37:31.479Z,55.93
2023-05-17T13:40:02.699Z,56.53
2023-05-17T13:42:30.738Z,56.10
2023-05-17T13:45:01.651Z,55.78
2023-05-17T13:47:32.527Z,56.12
2023-05-17T13:50:01.861Z,56.75
2023-05-17T13:52:33.021Z,57.55
2023-05-17T13:55:00.913Z,56.30
2023-05-17T13:57:29.222Z,56.36
2023-05-17T13:59:57.370Z,56.47
2023-05-17T14:02:25.527Z,55.90
2023-05-17T14:05:04.749Z,55.37
2023-05-17T14:07:36.916Z,55.90
2023-05-17T14:10:05.723Z,55.91
2023-05-17T14:12:33.688Z,55.42
2023-05-17T14:15:04.810Z,54.84
2023-05-17T14:17:35.975Z,54.74
2023-05-17T14:20:05.071Z,54.46
2023-05-17T14:22:34.515Z,53.78
2023-05-17T14:25:02.801Z,54.07
2023-05-17T14:27:35.247Z,55.46
2023-05-17T14:30:27.919Z,56.85
2023-05-17T14:32:56.080Z,56.76
2023-05-17T14:35:27.841Z,57.53
2023-05-17T14:38:17.757Z,57.96
2023-05-17T14:40:51.316Z,58.52
2023-05-17T14:43:21.696Z,57.97
2023-05-17T14:45:49.782Z,58.14
2023-05-17T14:48:17.596Z,56.85
2023-05-17T14:50:48.230Z,57.61
2023-05-17T14:53:17.651Z,57.16
2023-05-17T14:55:45.841Z,57.58
2023-05-17T14:58:16.667Z,57.28
2023-05-17T15:00:48.555Z,57.06
2023-05-17T15:03:24.714Z,56.71
2023-05-17T15:05:55.469Z,55.08
2023-05-17T15:08:48.345Z,55.86
2023-05-17T15:11:20.598Z,54.99
2023-05-17T15:13:49.021Z,55.66
2023-05-17T15:16:19.993Z,55.50
2023-05-17T15:18:48.394Z,55.74
2023-05-17T15:21:17.665Z,56.43
2023-05-17T15:23:47.936Z,55.55
2023-05-17T15:26:17.539Z,55.83
2023-05-17T15:29:02.412Z,55.48
2023-05-17T15:31:32.628Z,53.84
2023-05-17T15:34:00.656Z,54.52
2023-05-17T15:36:31.574Z,54.40
2023-05-17T15:39:00.882Z,54.08
2023-05-17T15:41:30.305Z,54.40
2023-05-17T15:44:05.506Z,54.52
2023-05-17T15:46:33.417Z,54.52
2023-05-17T15:49:03.875Z,53.84
2023-05-17T15:51:36.845Z,52.08
2023-05-17T15:54:06.292Z,51.03
2023-05-17T15:56:34.255Z,50.99
2023-05-17T15:59:14.105Z,49.47
2023-05-17T16:01:46.255Z,48.04
2023-05-17T16:04:16.225Z,48.19
2023-05-17T16:06:50.009Z,48.02
2023-05-17T16:09:23.051Z,48.59
2023-05-17T16:11:50.892Z,48.98
2023-05-17T16:14:18.687Z,50.09
2023-05-17T16:16:46.592Z,52.32
2023-05-17T16:19:22.738Z,53.40
2023-05-17T16:21:52.309Z,53.67
2023-05-17T16:24:24.609Z,54.91
2023-05-17T16:26:52.443Z,54.46
2023-05-17T16:29:22.386Z,55.06
2023-05-17T16:31:51.514Z,54.13
2023-05-17T16:34:21.429Z,53.57
2023-05-17T16:36:50.521Z,52.56
2023-05-17T16:39:18.387Z,52.77
2023-05-17T16:41:50.470Z,52.52
2023-05-17T16:44:18.249Z,52.70
2023-05-17T16:46:47.781Z,52.74
2023-05-17T16:49:18.893Z,52.73
2023-05-17T16:51:49.343Z,52.17
2023-05-17T16:54:17.594Z,52.27
2023-05-17T16:56:46.067Z,51.84
2023-05-17T16:59:18.051Z,52.31
2023-05-17T17:01:46.650Z,52.00
2023-05-17T17:04:17.411Z,51.08
2023-05-17T17:06:45.365Z,51.53
2023-05-17T17:09:13.234Z,51.21
2023-05-17T17:11:41.343Z,52.09
2023-05-17T17:14:12.011Z,51.48
2023-05-17T17:16:41.984Z,51.95
2023-05-17T17:19:10.159Z,51.71
2023-05-17T17:21:38.112Z,52.05
2023-05-17T17:24:06.987Z,51.37
2023-05-17T17:26:37.873Z,51.30
2023-05-17T17:29:06.092Z,51.82
2023-05-17T17:31:39.409Z,52.24
2023-05-17T17:34:08.846Z,53.32
2023-05-17T17:36:39.403Z,52.37
2023-05-17T17:39:18.439Z,52.82
2023-05-17T17:41:46.384Z,52.91
2023-05-17T17:44:14.242Z,53.42
2023-05-17T17:46:42.506Z,54.24
2023-05-17T17:49:11.949Z,53.39
2023-05-17T17:51:39.849Z,52.99
2023-05-17T17:54:12.503Z,53.39
2023-05-17T17:56:41.978Z,53.08
2023-05-17T17:59:10.043Z,53.02
2023-05-17T18:01:40.957Z,53.07
2023-05-17T18:04:14.551Z,52.88
2023-05-17T18:06:44.441Z,52.46
2023-05-17T18:09:12.208Z,52.39
2023-05-17T18:11:50.979Z,52.10
2023-05-17T18:14:24.803Z,51.95
2023-05-17T18:16:57.973Z,52.42
2023-05-17T18:19:31.838Z,52.73
2023-05-17T18:22:01.106Z,52.13
2023-05-17T18:24:30.173Z,52.54
2023-05-17T18:26:58.086Z,52.66
2023-05-17T18:29:26.089Z,52.72
2023-05-17T18:31:55.338Z,52.26
2023-05-17T18:34:31.459Z,52.54
2023-05-17T18:37:02.066Z,52.86
2023-05-17T18:39:30.240Z,52.78
2023-05-17T18:41:59.158Z,52.68
2023-05-17T18:44:26.931Z,52.92
2023-05-17T18:46:54.913Z,53.26
2023-05-17T18:49:22.955Z,53.47
2023-05-17T18:51:54.570Z,53.41
2023-05-17T18:54:26.086Z,53.74
2023-05-17T18:56:57.828Z,54.11
2023-05-17T18:59:25.759Z,53.46
2023-05-17T19:01:55.496Z,53.49
2023-05-17T19:04:24.642Z,52.91
2023-05-17T19:06:55.005Z,53.50
2023-05-17T19:09:25.387Z,53.47
2023-05-17T19:11:57.344Z,53.66
2023-05-17T19:14:28.099Z,53.41
2023-05-17T19:16:56.989Z,52.90
2023-05-17T19:19:25.362Z,53.44
2023-05-17T19:21:56.175Z,53.35
2023-05-17T19:24:29.866Z,54.69
2023-05-17T19:27:00.746Z,55.50
2023-05-17T19:29:35.537Z,56.45
2023-05-17T19:32:03.550Z,57.12
2023-05-17T19:34:34.034Z,56.29
2023-05-17T19:37:01.884Z,57.32
2023-05-17T19:39:33.040Z,57.23
2023-05-17T19:42:09.917Z,58.97
2023-05-17T19:44:40.662Z,58.65
2023-05-17T19:47:10.105Z,58.76
2023-05-17T19:49:38.038Z,59.27
2023-05-17T19:52:07.951Z,58.63
2023-05-17T19:54:37.211Z,59.02
2023-05-17T19:57:09.639Z,59.48
2023-05-17T19:59:37.486Z,59.87
2023-05-17T20:02:05.584Z,59.41
2023-05-17T20:04:35.915Z,58.77
2023-05-17T20:07:03.849Z,58.52
2023-05-17T20:09:37.040Z,59.44
2023-05-17T20:12:07.860Z,59.62
2023-05-17T20:14:38.645Z,59.33
2023-05-17T20:17:08.642Z,59.50
2023-05-17T20:19:38.150Z,59.30
2023-05-17T20:22:08.812Z,58.83
2023-05-17T20:24:39.231Z,60.26
2023-05-17T20:27:11.637Z,60.23
2023-05-17T20:29:43.652Z,60.13
2023-05-17T20:32:11.538Z,60.65
2023-05-17T20:34:39.402Z,60.90
2023-05-17T20:37:14.495Z,61.29
2023-05-17T20:39:46.322Z,61.04
2023-05-17T20:42:18.071Z,61.20
2023-05-17T20:44:46.556Z,60.99
2023-05-17T20:47:17.710Z,61.45
2023-05-17T20:49:47.842Z,60.83
2023-05-17T20:52:22.065Z,61.59
2023-05-17T20:55:01.356Z,60.85
2023-05-17T20:57:30.613Z,63.26
2023-05-17T20:59:58.782Z,62.80
2023-05-17T21:02:26.727Z,63.29
2023-05-17T21:04:55.049Z,63.55
2023-05-17T21:07:27.590Z,64.34
2023-05-17T21:09:55.659Z,64.82
2023-05-17T21:12:24.997Z,65.61
2023-05-17T21:15:14.539Z,65.36
2023-05-17T21:17:43.492Z,64.79
2023-05-17T21:20:14.066Z,64.04
2023-05-17T21:22:44.933Z,64.69
2023-05-17T21:25:14.743Z,65.23
2023-05-17T21:27:45.036Z,63.91
2023-05-17T21:30:14.854Z,64.84
2023-05-17T21:32:55.106Z,65.60
2023-05-17T21:35:30.142Z,65.34
2023-05-17T21:37:58.006Z,63.88
2023-05-17T21:40:32.978Z,62.58
2023-05-17T21:43:01.288Z,61.96
2023-05-17T21:45:31.122Z,62.01
2023-05-17T21:48:01.402Z,62.57
2023-05-17T21:50:29.287Z,62.82
2023-05-17T21:52:57.310Z,63.32
2023-05-17T21:55:32.487Z,63.51
2023-05-17T21:58:16.278Z,63.22
2023-05-17T22:00:45.526Z,64.28
2023-05-17T22:03:13.522Z,66.57
2023-05-17T22:05:46.727Z,65.67
2023-05-17T22:08:14.642Z,65.48
2023-05-17T22:10:44.563Z,65.57
2023-05-17T22:13:18.780Z,66.38
2023-05-17T22:15:48.745Z,66.59
2023-05-17T22:18:19.480Z,67.29
2023-05-17T22:20:53.417Z,66.90
2023-05-17T22:23:21.344Z,67.79
2023-05-17T22:25:49.103Z,67.67
2023-05-17T22:28:17.043Z,67.64
2023-05-17T22:30:46.536Z,68.26
2023-05-17T22:33:18.555Z,68.59
2023-05-17T22:35:48.940Z,68.67
2023-05-17T22:38:19.314Z,68.93
2023-05-17T22:40:51.444Z,69.20
2023-05-17T22:43:21.531Z,69.65
2023-05-17T22:46:00.158Z,69.02
2023-05-17T22:48:41.332Z,69.18
2023-05-17T22:51:13.967Z,68.23
2023-05-17T22:53:42.146Z,68.41
2023-05-17T22:56:15.187Z,67.78
2023-05-17T22:58:44.348Z,69.00
2023-05-17T23:01:14.327Z,68.62
2023-05-17T23:03:43.729Z,67.96
2023-05-17T23:06:21.894Z,67.34
2023-05-17T23:08:54.264Z,66.04
2023-05-17T23:11:22.540Z,65.96
2023-05-17T23:13:50.787Z,65.15
2023-05-17T23:16:26.017Z,64.61
2023-05-17T23:19:09.003Z,64.44
2023-05-17T23:21:42.388Z,65.68
2023-05-17T23:24:14.105Z,65.17
2023-05-17T23:26:51.189Z,64.32
2023-05-17T23:29:22.015Z,65.27
2023-05-17T23:31:50.706Z,65.42
2023-05-17T23:34:25.996Z,66.80
2023-05-17T23:36:53.799Z,65.89
2023-05-17T23:39:27.358Z,66.21
2023-05-17T23:41:58.267Z,66.23
2023-05-17T23:44:27.509Z,66.00
2023-05-17T23:46:58.532Z,66.04
2023-05-17T23:49:29.055Z,64.73
2023-05-17T23:51:59.654Z,66.33
2023-05-17T23:54:28.413Z,64.56
2023-05-17T23:56:56.485Z,64.35
2023-05-17T23:59:27.104Z,65.43
